sensor_id;sensor_type;location;lat;lon;timestamp;P1;durP1;ratioP1;P2;durP2;ratioP2
60038;SDS011;45916;52.734;6.544;2023-07-28T00:01:24;22.65;;;16.80;;
60038;SDS011;45916;52.734;6.544;2023-07-28T00:03:50;26.00;;;18.55;;
60038;SDS011;45916;52.734;6.544;2023-07-28T00:06:16;23.35;;;16.85;;
60038;SDS011;45916;52.734;6.544;2023-07-28T00:08:42;23.98;;;17.83;;
60038;SDS011;45916;52.734;6.544;2023-07-28T00:11:11;21.65;;;17.25;;
60038;SDS011;45916;52.734;6.544;2023-07-28T00:13:38;21.25;;;15.68;;
60038;SDS011;45916;52.734;6.544;2023-07-28T00:16:05;24.40;;;16.38;;
60038;SDS011;45916;52.734;6.544;2023-07-28T00:18:31;25.10;;;17.73;;
60038;SDS011;45916;52.734;6.544;2023-07-28T00:20:57;23.60;;;16.30;;
60038;SDS011;45916;52.734;6.544;2023-07-28T00:23:22;24.83;;;18.35;;
60038;SDS011;45916;52.734;6.544;2023-07-28T00:25:48;21.45;;;16.70;;
60038;SDS011;45916;52.734;6.544;2023-07-28T00:28:14;23.90;;;16.55;;
60038;SDS011;45916;52.734;6.544;2023-07-28T00:30:39;24.05;;;17.60;;
60038;SDS011;45916;52.734;6.544;2023-07-28T00:33:05;24.92;;;17.02;;
60038;SDS011;45916;52.734;6.544;2023-07-28T00:35:31;23.98;;;17.73;;
60038;SDS011;45916;52.734;6.544;2023-07-28T00:37:57;24.83;;;18.33;;
60038;SDS011;45916;52.734;6.544;2023-07-28T00:40:23;25.67;;;16.83;;
60038;SDS011;45916;52.734;6.544;2023-07-28T00:42:49;30.77;;;18.63;;
60038;SDS011;45916;52.734;6.544;2023-07-28T00:45:15;26.55;;;18.33;;
60038;SDS011;45916;52.734;6.544;2023-07-28T00:47:41;25.42;;;17.92;;
60038;SDS011;45916;52.734;6.544;2023-07-28T00:50:10;25.80;;;17.77;;
60038;SDS011;45916;52.734;6.544;2023-07-28T00:52:37;25.08;;;16.88;;
60038;SDS011;45916;52.734;6.544;2023-07-28T00:55:03;25.95;;;19.00;;
60038;SDS011;45916;52.734;6.544;2023-07-28T00:57:31;28.08;;;19.75;;
60038;SDS011;45916;52.734;6.544;2023-07-28T00:59:56;26.48;;;19.13;;
60038;SDS011;45916;52.734;6.544;2023-07-28T01:02:22;29.80;;;19.42;;
60038;SDS011;45916;52.734;6.544;2023-07-28T01:04:48;28.48;;;18.90;;
60038;SDS011;45916;52.734;6.544;2023-07-28T01:07:50;25.40;;;18.73;;
60038;SDS011;45916;52.734;6.544;2023-07-28T01:10:24;29.08;;;18.45;;
60038;SDS011;45916;52.734;6.544;2023-07-28T01:12:53;28.27;;;20.35;;
60038;SDS011;45916;52.734;6.544;2023-07-28T01:15:19;26.73;;;18.20;;
60038;SDS011;45916;52.734;6.544;2023-07-28T01:17:45;26.55;;;19.92;;
60038;SDS011;45916;52.734;6.544;2023-07-28T01:20:11;28.40;;;18.83;;
60038;SDS011;45916;52.734;6.544;2023-07-28T01:28:07;26.92;;;19.35;;
60038;SDS011;45916;52.734;6.544;2023-07-28T01:30:33;30.05;;;20.75;;
60038;SDS011;45916;52.734;6.544;2023-07-28T01:32:59;27.60;;;20.23;;
60038;SDS011;45916;52.734;6.544;2023-07-28T01:35:25;28.70;;;19.52;;
60038;SDS011;45916;52.734;6.544;2023-07-28T01:37:51;28.75;;;20.17;;
60038;SDS011;45916;52.734;6.544;2023-07-28T01:40:20;29.70;;;21.00;;
60038;SDS011;45916;52.734;6.544;2023-07-28T01:42:45;29.77;;;20.88;;
60038;SDS011;45916;52.734;6.544;2023-07-28T01:45:11;26.38;;;20.00;;
60038;SDS011;45916;52.734;6.544;2023-07-28T01:47:37;27.90;;;20.58;;
60038;SDS011;45916;52.734;6.544;2023-07-28T01:50:03;27.58;;;19.05;;
60038;SDS011;45916;52.734;6.544;2023-07-28T01:52:29;28.33;;;20.42;;
60038;SDS011;45916;52.734;6.544;2023-07-28T01:54:55;29.38;;;19.83;;
60038;SDS011;45916;52.734;6.544;2023-07-28T01:57:20;30.27;;;19.30;;
60038;SDS011;45916;52.734;6.544;2023-07-28T01:59:46;24.38;;;18.38;;
60038;SDS011;45916;52.734;6.544;2023-07-28T02:02:12;27.65;;;19.63;;
60038;SDS011;45916;52.734;6.544;2023-07-28T02:04:37;29.83;;;19.98;;
60038;SDS011;45916;52.734;6.544;2023-07-28T02:07:03;25.60;;;19.25;;
60038;SDS011;45916;52.734;6.544;2023-07-28T02:09:29;29.90;;;20.40;;
60038;SDS011;45916;52.734;6.544;2023-07-28T02:11:55;26.17;;;18.30;;
60038;SDS011;45916;52.734;6.544;2023-07-28T02:14:20;23.33;;;18.80;;
60038;SDS011;45916;52.734;6.544;2023-07-28T02:16:46;26.77;;;18.58;;
60038;SDS011;45916;52.734;6.544;2023-07-28T02:19:12;28.13;;;19.40;;
60038;SDS011;45916;52.734;6.544;2023-07-28T02:21:37;27.63;;;19.58;;
60038;SDS011;45916;52.734;6.544;2023-07-28T02:24:03;25.40;;;18.42;;
60038;SDS011;45916;52.734;6.544;2023-07-28T02:26:29;28.08;;;18.92;;
60038;SDS011;45916;52.734;6.544;2023-07-28T02:28:55;28.20;;;18.35;;
60038;SDS011;45916;52.734;6.544;2023-07-28T02:31:20;26.23;;;18.30;;
60038;SDS011;45916;52.734;6.544;2023-07-28T02:33:46;24.15;;;17.65;;
60038;SDS011;45916;52.734;6.544;2023-07-28T02:36:12;28.73;;;18.98;;
60038;SDS011;45916;52.734;6.544;2023-07-28T02:38:37;27.25;;;18.30;;
60038;SDS011;45916;52.734;6.544;2023-07-28T02:41:03;25.42;;;18.90;;
60038;SDS011;45916;52.734;6.544;2023-07-28T02:43:29;27.95;;;18.10;;
60038;SDS011;45916;52.734;6.544;2023-07-28T02:45:55;26.77;;;19.55;;
60038;SDS011;45916;52.734;6.544;2023-07-28T02:48:22;24.40;;;17.90;;
60038;SDS011;45916;52.734;6.544;2023-07-28T02:50:49;25.88;;;18.17;;
60038;SDS011;45916;52.734;6.544;2023-07-28T02:53:16;26.08;;;18.65;;
60038;SDS011;45916;52.734;6.544;2023-07-28T02:55:45;29.15;;;18.35;;
60038;SDS011;45916;52.734;6.544;2023-07-28T02:58:12;27.27;;;18.48;;
60038;SDS011;45916;52.734;6.544;2023-07-28T03:00:38;27.85;;;18.58;;
60038;SDS011;45916;52.734;6.544;2023-07-28T03:03:05;23.15;;;18.33;;
60038;SDS011;45916;52.734;6.544;2023-07-28T03:05:32;28.15;;;18.75;;
60038;SDS011;45916;52.734;6.544;2023-07-28T03:07:58;24.88;;;16.98;;
60038;SDS011;45916;52.734;6.544;2023-07-28T03:10:24;28.58;;;17.55;;
60038;SDS011;45916;52.734;6.544;2023-07-28T03:12:50;27.00;;;18.23;;
60038;SDS011;45916;52.734;6.544;2023-07-28T03:15:16;24.80;;;18.02;;
60038;SDS011;45916;52.734;6.544;2023-07-28T03:17:41;25.40;;;18.15;;
60038;SDS011;45916;52.734;6.544;2023-07-28T03:20:07;26.50;;;18.52;;
60038;SDS011;45916;52.734;6.544;2023-07-28T03:22:33;26.13;;;18.17;;
60038;SDS011;45916;52.734;6.544;2023-07-28T03:24:59;24.58;;;16.73;;
60038;SDS011;45916;52.734;6.544;2023-07-28T03:27:25;27.58;;;19.42;;
60038;SDS011;45916;52.734;6.544;2023-07-28T03:29:50;29.05;;;18.35;;
60038;SDS011;45916;52.734;6.544;2023-07-28T03:32:16;29.25;;;18.95;;
60038;SDS011;45916;52.734;6.544;2023-07-28T03:34:42;28.08;;;18.13;;
60038;SDS011;45916;52.734;6.544;2023-07-28T03:37:08;25.77;;;18.15;;
60038;SDS011;45916;52.734;6.544;2023-07-28T03:39:34;27.33;;;18.60;;
60038;SDS011;45916;52.734;6.544;2023-07-28T03:41:59;31.10;;;18.83;;
60038;SDS011;45916;52.734;6.544;2023-07-28T03:44:25;27.63;;;18.95;;
60038;SDS011;45916;52.734;6.544;2023-07-28T03:46:51;27.40;;;19.48;;
60038;SDS011;45916;52.734;6.544;2023-07-28T03:49:17;24.90;;;17.98;;
60038;SDS011;45916;52.734;6.544;2023-07-28T03:51:42;25.63;;;17.98;;
60038;SDS011;45916;52.734;6.544;2023-07-28T03:54:08;28.27;;;18.73;;
60038;SDS011;45916;52.734;6.544;2023-07-28T03:56:34;32.33;;;19.08;;
60038;SDS011;45916;52.734;6.544;2023-07-28T03:58:59;30.60;;;18.42;;
60038;SDS011;45916;52.734;6.544;2023-07-28T04:01:25;27.27;;;19.20;;
60038;SDS011;45916;52.734;6.544;2023-07-28T04:03:51;28.58;;;19.05;;
60038;SDS011;45916;52.734;6.544;2023-07-28T04:06:16;30.60;;;18.55;;
60038;SDS011;45916;52.734;6.544;2023-07-28T04:08:42;25.98;;;18.73;;
60038;SDS011;45916;52.734;6.544;2023-07-28T04:11:08;25.65;;;18.30;;
60038;SDS011;45916;52.734;6.544;2023-07-28T04:13:34;31.15;;;19.08;;
60038;SDS011;45916;52.734;6.544;2023-07-28T04:16:00;26.75;;;17.30;;
60038;SDS011;45916;52.734;6.544;2023-07-28T04:18:26;25.15;;;18.42;;
60038;SDS011;45916;52.734;6.544;2023-07-28T04:20:52;25.33;;;18.70;;
60038;SDS011;45916;52.734;6.544;2023-07-28T04:23:18;26.30;;;17.92;;
60038;SDS011;45916;52.734;6.544;2023-07-28T04:25:44;25.73;;;17.17;;
60038;SDS011;45916;52.734;6.544;2023-07-28T04:28:09;23.90;;;17.02;;
60038;SDS011;45916;52.734;6.544;2023-07-28T04:30:35;28.90;;;19.08;;
60038;SDS011;45916;52.734;6.544;2023-07-28T04:33:01;28.48;;;18.75;;
60038;SDS011;45916;52.734;6.544;2023-07-28T04:35:27;26.67;;;18.40;;
60038;SDS011;45916;52.734;6.544;2023-07-28T04:37:55;23.73;;;17.60;;
60038;SDS011;45916;52.734;6.544;2023-07-28T04:40:21;25.60;;;18.58;;
60038;SDS011;45916;52.734;6.544;2023-07-28T04:42:46;25.08;;;17.38;;
60038;SDS011;45916;52.734;6.544;2023-07-28T04:45:14;24.65;;;18.17;;
60038;SDS011;45916;52.734;6.544;2023-07-28T04:47:39;27.75;;;17.88;;
60038;SDS011;45916;52.734;6.544;2023-07-28T04:50:05;28.02;;;18.60;;
60038;SDS011;45916;52.734;6.544;2023-07-28T04:52:31;29.08;;;19.17;;
60038;SDS011;45916;52.734;6.544;2023-07-28T04:54:57;28.08;;;18.33;;
60038;SDS011;45916;52.734;6.544;2023-07-28T04:57:22;25.80;;;17.20;;
60038;SDS011;45916;52.734;6.544;2023-07-28T04:59:48;25.63;;;18.10;;
60038;SDS011;45916;52.734;6.544;2023-07-28T05:02:14;29.55;;;18.65;;
60038;SDS011;45916;52.734;6.544;2023-07-28T05:04:39;26.33;;;17.52;;
60038;SDS011;45916;52.734;6.544;2023-07-28T05:07:05;25.02;;;17.38;;
60038;SDS011;45916;52.734;6.544;2023-07-28T05:09:31;29.10;;;19.13;;
60038;SDS011;45916;52.734;6.544;2023-07-28T05:11:56;26.77;;;18.52;;
60038;SDS011;45916;52.734;6.544;2023-07-28T05:14:22;26.08;;;18.65;;
60038;SDS011;45916;52.734;6.544;2023-07-28T05:16:48;27.80;;;18.92;;
60038;SDS011;45916;52.734;6.544;2023-07-28T05:19:13;23.77;;;17.73;;
60038;SDS011;45916;52.734;6.544;2023-07-28T05:21:39;25.48;;;18.38;;
60038;SDS011;45916;52.734;6.544;2023-07-28T05:24:05;26.73;;;19.27;;
60038;SDS011;45916;52.734;6.544;2023-07-28T05:26:30;27.48;;;19.67;;
60038;SDS011;45916;52.734;6.544;2023-07-28T05:28:56;24.58;;;19.35;;
60038;SDS011;45916;52.734;6.544;2023-07-28T05:31:22;29.00;;;18.67;;
60038;SDS011;45916;52.734;6.544;2023-07-28T05:33:47;27.38;;;20.67;;
60038;SDS011;45916;52.734;6.544;2023-07-28T05:36:14;26.77;;;18.20;;
60038;SDS011;45916;52.734;6.544;2023-07-28T05:38:40;29.25;;;19.58;;
60038;SDS011;45916;52.734;6.544;2023-07-28T05:41:05;22.73;;;17.25;;
60038;SDS011;45916;52.734;6.544;2023-07-28T05:43:32;25.10;;;18.58;;
60038;SDS011;45916;52.734;6.544;2023-07-28T05:45:58;23.88;;;18.13;;
60038;SDS011;45916;52.734;6.544;2023-07-28T05:48:25;28.02;;;19.70;;
60038;SDS011;45916;52.734;6.544;2023-07-28T05:50:51;27.73;;;18.73;;
60038;SDS011;45916;52.734;6.544;2023-07-28T05:53:18;21.23;;;18.27;;
60038;SDS011;45916;52.734;6.544;2023-07-28T05:55:47;25.80;;;18.48;;
60038;SDS011;45916;52.734;6.544;2023-07-28T05:58:14;24.25;;;17.85;;
60038;SDS011;45916;52.734;6.544;2023-07-28T06:00:39;24.50;;;18.13;;
60038;SDS011;45916;52.734;6.544;2023-07-28T06:03:15;30.00;;;18.98;;
60038;SDS011;45916;52.734;6.544;2023-07-28T06:05:41;22.73;;;17.42;;
60038;SDS011;45916;52.734;6.544;2023-07-28T06:08:07;26.17;;;17.98;;
60038;SDS011;45916;52.734;6.544;2023-07-28T06:10:33;24.17;;;17.02;;
60038;SDS011;45916;52.734;6.544;2023-07-28T06:12:59;22.15;;;17.20;;
60038;SDS011;45916;52.734;6.544;2023-07-28T06:15:25;25.48;;;16.58;;
60038;SDS011;45916;52.734;6.544;2023-07-28T06:17:51;21.45;;;16.77;;
60038;SDS011;45916;52.734;6.544;2023-07-28T06:20:17;23.90;;;16.55;;
60038;SDS011;45916;52.734;6.544;2023-07-28T06:22:43;23.20;;;17.08;;
60038;SDS011;45916;52.734;6.544;2023-07-28T06:25:09;24.23;;;17.02;;
60038;SDS011;45916;52.734;6.544;2023-07-28T06:27:35;24.35;;;16.10;;
60038;SDS011;45916;52.734;6.544;2023-07-28T06:30:01;23.48;;;17.17;;
60038;SDS011;45916;52.734;6.544;2023-07-28T06:32:27;25.05;;;16.88;;
60038;SDS011;45916;52.734;6.544;2023-07-28T06:34:53;20.92;;;15.85;;
60038;SDS011;45916;52.734;6.544;2023-07-28T06:37:19;22.42;;;16.45;;
60038;SDS011;45916;52.734;6.544;2023-07-28T06:39:45;20.48;;;16.02;;
60038;SDS011;45916;52.734;6.544;2023-07-28T06:42:11;22.30;;;15.05;;
60038;SDS011;45916;52.734;6.544;2023-07-28T06:44:37;16.55;;;13.73;;
60038;SDS011;45916;52.734;6.544;2023-07-28T06:47:03;17.52;;;14.18;;
60038;SDS011;45916;52.734;6.544;2023-07-28T06:49:29;15.98;;;12.77;;
60038;SDS011;45916;52.734;6.544;2023-07-28T06:51:56;18.48;;;13.55;;
60038;SDS011;45916;52.734;6.544;2023-07-28T06:54:24;16.27;;;12.77;;
60038;SDS011;45916;52.734;6.544;2023-07-28T06:56:50;16.98;;;11.93;;
60038;SDS011;45916;52.734;6.544;2023-07-28T06:59:16;16.92;;;12.70;;
60038;SDS011;45916;52.734;6.544;2023-07-28T07:01:42;12.98;;;11.23;;
60038;SDS011;45916;52.734;6.544;2023-07-28T07:04:07;16.33;;;11.98;;
60038;SDS011;45916;52.734;6.544;2023-07-28T07:06:33;17.50;;;11.95;;
60038;SDS011;45916;52.734;6.544;2023-07-28T07:08:59;15.38;;;11.98;;
60038;SDS011;45916;52.734;6.544;2023-07-28T07:11:24;14.77;;;10.65;;
60038;SDS011;45916;52.734;6.544;2023-07-28T07:13:50;13.77;;;10.73;;
60038;SDS011;45916;52.734;6.544;2023-07-28T07:16:16;14.68;;;11.45;;
60038;SDS011;45916;52.734;6.544;2023-07-28T07:18:42;15.02;;;11.60;;
60038;SDS011;45916;52.734;6.544;2023-07-28T07:21:08;15.00;;;11.27;;
60038;SDS011;45916;52.734;6.544;2023-07-28T07:23:35;12.63;;;10.95;;
60038;SDS011;45916;52.734;6.544;2023-07-28T07:26:01;13.93;;;10.85;;
60038;SDS011;45916;52.734;6.544;2023-07-28T07:28:27;13.85;;;10.63;;
60038;SDS011;45916;52.734;6.544;2023-07-28T07:30:53;14.38;;;11.23;;
60038;SDS011;45916;52.734;6.544;2023-07-28T07:33:19;13.57;;;10.27;;
60038;SDS011;45916;52.734;6.544;2023-07-28T07:35:45;14.80;;;10.80;;
60038;SDS011;45916;52.734;6.544;2023-07-28T07:38:11;12.15;;;10.38;;
60038;SDS011;45916;52.734;6.544;2023-07-28T07:40:37;13.32;;;10.90;;
60038;SDS011;45916;52.734;6.544;2023-07-28T07:43:03;13.38;;;10.20;;
60038;SDS011;45916;52.734;6.544;2023-07-28T07:45:29;13.90;;;10.43;;
60038;SDS011;45916;52.734;6.544;2023-07-28T07:47:55;13.85;;;10.52;;
60038;SDS011;45916;52.734;6.544;2023-07-28T07:50:21;16.50;;;11.88;;
60038;SDS011;45916;52.734;6.544;2023-07-28T07:52:47;14.35;;;11.65;;
60038;SDS011;45916;52.734;6.544;2023-07-28T07:55:13;16.23;;;11.70;;
60038;SDS011;45916;52.734;6.544;2023-07-28T07:57:39;14.70;;;10.93;;
60038;SDS011;45916;52.734;6.544;2023-07-28T08:00:05;14.18;;;10.55;;
60038;SDS011;45916;52.734;6.544;2023-07-28T08:02:32;12.88;;;10.30;;
60038;SDS011;45916;52.734;6.544;2023-07-28T08:04:57;11.50;;;9.95;;
60038;SDS011;45916;52.734;6.544;2023-07-28T08:07:23;13.52;;;10.50;;
60038;SDS011;45916;52.734;6.544;2023-07-28T08:09:49;13.50;;;10.20;;
60038;SDS011;45916;52.734;6.544;2023-07-28T08:12:15;14.85;;;10.57;;
60038;SDS011;45916;52.734;6.544;2023-07-28T08:14:41;15.80;;;10.40;;
60038;SDS011;45916;52.734;6.544;2023-07-28T08:17:08;11.45;;;9.63;;
60038;SDS011;45916;52.734;6.544;2023-07-28T08:19:34;14.07;;;9.77;;
60038;SDS011;45916;52.734;6.544;2023-07-28T08:22:00;11.98;;;10.00;;
60038;SDS011;45916;52.734;6.544;2023-07-28T08:24:28;13.93;;;9.80;;
60038;SDS011;45916;52.734;6.544;2023-07-28T08:26:54;12.02;;;9.10;;
60038;SDS011;45916;52.734;6.544;2023-07-28T08:29:20;13.23;;;8.43;;
60038;SDS011;45916;52.734;6.544;2023-07-28T08:31:46;11.73;;;8.50;;
60038;SDS011;45916;52.734;6.544;2023-07-28T08:34:12;10.70;;;8.63;;
60038;SDS011;45916;52.734;6.544;2023-07-28T08:36:38;11.07;;;8.05;;
60038;SDS011;45916;52.734;6.544;2023-07-28T08:39:03;8.25;;;6.72;;
60038;SDS011;45916;52.734;6.544;2023-07-28T08:41:30;9.45;;;6.85;;
60038;SDS011;45916;52.734;6.544;2023-07-28T08:43:55;9.93;;;7.05;;
60038;SDS011;45916;52.734;6.544;2023-07-28T08:46:22;9.25;;;6.40;;
60038;SDS011;45916;52.734;6.544;2023-07-28T08:48:48;8.48;;;6.82;;
60038;SDS011;45916;52.734;6.544;2023-07-28T08:51:14;9.10;;;6.90;;
60038;SDS011;45916;52.734;6.544;2023-07-28T08:53:40;10.05;;;7.45;;
60038;SDS011;45916;52.734;6.544;2023-07-28T08:56:06;10.27;;;8.20;;
60038;SDS011;45916;52.734;6.544;2023-07-28T08:58:32;10.48;;;8.02;;
60038;SDS011;45916;52.734;6.544;2023-07-28T09:00:58;12.10;;;8.45;;
60038;SDS011;45916;52.734;6.544;2023-07-28T09:03:26;10.25;;;8.23;;
60038;SDS011;45916;52.734;6.544;2023-07-28T09:05:58;12.30;;;8.55;;
60038;SDS011;45916;52.734;6.544;2023-07-28T09:08:27;10.98;;;8.20;;
60038;SDS011;45916;52.734;6.544;2023-07-28T09:10:55;12.98;;;8.20;;
60038;SDS011;45916;52.734;6.544;2023-07-28T09:13:30;12.43;;;9.13;;
60038;SDS011;45916;52.734;6.544;2023-07-28T09:16:19;12.40;;;8.82;;
60038;SDS011;45916;52.734;6.544;2023-07-28T09:18:45;13.77;;;9.57;;
60038;SDS011;45916;52.734;6.544;2023-07-28T09:21:18;10.63;;;9.30;;
60038;SDS011;45916;52.734;6.544;2023-07-28T09:23:46;11.90;;;9.05;;
60038;SDS011;45916;52.734;6.544;2023-07-28T09:26:13;10.25;;;8.90;;
60038;SDS011;45916;52.734;6.544;2023-07-28T09:28:40;12.55;;;8.70;;
60038;SDS011;45916;52.734;6.544;2023-07-28T09:31:06;10.93;;;8.02;;
60038;SDS011;45916;52.734;6.544;2023-07-28T09:33:33;13.52;;;9.43;;
60038;SDS011;45916;52.734;6.544;2023-07-28T09:36:11;12.75;;;8.52;;
60038;SDS011;45916;52.734;6.544;2023-07-28T09:38:39;12.18;;;9.02;;
60038;SDS011;45916;52.734;6.544;2023-07-28T09:41:07;11.55;;;8.70;;
60038;SDS011;45916;52.734;6.544;2023-07-28T09:43:36;12.07;;;8.52;;
60038;SDS011;45916;52.734;6.544;2023-07-28T09:46:04;13.13;;;9.48;;
60038;SDS011;45916;52.734;6.544;2023-07-28T09:50:57;14.80;;;9.07;;
60038;SDS011;45916;52.734;6.544;2023-07-28T09:53:27;12.43;;;9.02;;
60038;SDS011;45916;52.734;6.544;2023-07-28T09:55:54;8.80;;;7.78;;
60038;SDS011;45916;52.734;6.544;2023-07-28T09:58:22;11.20;;;8.90;;
60038;SDS011;45916;52.734;6.544;2023-07-28T10:00:50;12.55;;;10.02;;
60038;SDS011;45916;52.734;6.544;2023-07-28T10:03:16;12.52;;;9.73;;
60038;SDS011;45916;52.734;6.544;2023-07-28T10:05:42;11.38;;;9.13;;
60038;SDS011;45916;52.734;6.544;2023-07-28T10:08:09;11.55;;;9.20;;
60038;SDS011;45916;52.734;6.544;2023-07-28T10:10:35;12.30;;;9.52;;
60038;SDS011;45916;52.734;6.544;2023-07-28T10:13:01;12.13;;;9.15;;
60038;SDS011;45916;52.734;6.544;2023-07-28T10:15:29;12.55;;;8.93;;
60038;SDS011;45916;52.734;6.544;2023-07-28T10:17:57;14.15;;;9.13;;
60038;SDS011;45916;52.734;6.544;2023-07-28T10:20:34;13.48;;;9.48;;
60038;SDS011;45916;52.734;6.544;2023-07-28T10:23:07;13.70;;;10.88;;
60038;SDS011;45916;52.734;6.544;2023-07-28T10:25:39;12.20;;;8.10;;
60038;SDS011;45916;52.734;6.544;2023-07-28T10:28:06;11.25;;;5.57;;
60038;SDS011;45916;52.734;6.544;2023-07-28T10:30:54;7.88;;;5.07;;
60038;SDS011;45916;52.734;6.544;2023-07-28T10:33:36;12.23;;;8.88;;
60038;SDS011;45916;52.734;6.544;2023-07-28T10:41:25;14.57;;;10.65;;
60038;SDS011;45916;52.734;6.544;2023-07-28T10:43:51;12.88;;;10.25;;
60038;SDS011;45916;52.734;6.544;2023-07-28T10:46:17;12.18;;;9.65;;
60038;SDS011;45916;52.734;6.544;2023-07-28T10:48:46;12.10;;;9.75;;
60038;SDS011;45916;52.734;6.544;2023-07-28T10:51:24;13.13;;;10.95;;
60038;SDS011;45916;52.734;6.544;2023-07-28T10:53:56;12.73;;;11.25;;
60038;SDS011;45916;52.734;6.544;2023-07-28T10:56:23;12.60;;;10.77;;
60038;SDS011;45916;52.734;6.544;2023-07-28T10:59:23;13.82;;;11.25;;
60038;SDS011;45916;52.734;6.544;2023-07-28T11:01:42;12.07;;;10.88;;
60038;SDS011;45916;52.734;6.544;2023-07-28T11:06:45;12.18;;;10.90;;
60038;SDS011;45916;52.734;6.544;2023-07-28T11:09:15;12.98;;;11.68;;
60038;SDS011;45916;52.734;6.544;2023-07-28T11:11:42;13.30;;;11.00;;
60038;SDS011;45916;52.734;6.544;2023-07-28T11:14:08;12.48;;;11.18;;
60038;SDS011;45916;52.734;6.544;2023-07-28T11:16:35;12.63;;;11.32;;
60038;SDS011;45916;52.734;6.544;2023-07-28T11:19:07;13.02;;;11.55;;
60038;SDS011;45916;52.734;6.544;2023-07-28T11:21:37;14.50;;;11.48;;
60038;SDS011;45916;52.734;6.544;2023-07-28T11:24:04;11.68;;;10.48;;
60038;SDS011;45916;52.734;6.544;2023-07-28T11:26:30;12.00;;;10.75;;
60038;SDS011;45916;52.734;6.544;2023-07-28T11:28:58;13.25;;;10.27;;
60038;SDS011;45916;52.734;6.544;2023-07-28T11:31:25;12.30;;;9.68;;
60038;SDS011;45916;52.734;6.544;2023-07-28T11:33:51;10.82;;;9.32;;
60038;SDS011;45916;52.734;6.544;2023-07-28T11:36:24;10.57;;;8.88;;
60038;SDS011;45916;52.734;6.544;2023-07-28T11:38:52;10.52;;;9.43;;
60038;SDS011;45916;52.734;6.544;2023-07-28T11:43:49;11.52;;;9.65;;
60038;SDS011;45916;52.734;6.544;2023-07-28T11:46:34;11.05;;;9.27;;
60038;SDS011;45916;52.734;6.544;2023-07-28T11:49:11;11.15;;;9.52;;
60038;SDS011;45916;52.734;6.544;2023-07-28T11:51:47;11.43;;;9.85;;
60038;SDS011;45916;52.734;6.544;2023-07-28T11:54:15;11.18;;;9.43;;
60038;SDS011;45916;52.734;6.544;2023-07-28T11:56:42;11.60;;;9.40;;
60038;SDS011;45916;52.734;6.544;2023-07-28T11:59:09;12.40;;;9.27;;
60038;SDS011;45916;52.734;6.544;2023-07-28T12:04:26;10.88;;;9.73;;
60038;SDS011;45916;52.734;6.544;2023-07-28T12:07:04;11.27;;;9.52;;
60038;SDS011;45916;52.734;6.544;2023-07-28T12:12:17;11.80;;;8.85;;
60038;SDS011;45916;52.734;6.544;2023-07-28T12:14:46;12.75;;;9.45;;
60038;SDS011;45916;52.734;6.544;2023-07-28T12:17:16;11.63;;;9.68;;
60038;SDS011;45916;52.734;6.544;2023-07-28T12:22:39;8.82;;;7.30;;
60038;SDS011;45916;52.734;6.544;2023-07-28T12:25:05;9.48;;;7.53;;
60038;SDS011;45916;52.734;6.544;2023-07-28T12:27:32;9.25;;;7.82;;
60038;SDS011;45916;52.734;6.544;2023-07-28T12:29:58;8.70;;;7.20;;
60038;SDS011;45916;52.734;6.544;2023-07-28T12:32:24;9.38;;;7.80;;
60038;SDS011;45916;52.734;6.544;2023-07-28T12:34:50;8.02;;;6.85;;
60038;SDS011;45916;52.734;6.544;2023-07-28T12:37:16;8.57;;;6.82;;
60038;SDS011;45916;52.734;6.544;2023-07-28T12:39:42;7.28;;;6.30;;
60038;SDS011;45916;52.734;6.544;2023-07-28T12:42:09;8.25;;;6.25;;
60038;SDS011;45916;52.734;6.544;2023-07-28T12:44:36;8.43;;;5.65;;
60038;SDS011;45916;52.734;6.544;2023-07-28T12:47:03;6.88;;;5.35;;
60038;SDS011;45916;52.734;6.544;2023-07-28T12:49:29;7.97;;;6.07;;
60038;SDS011;45916;52.734;6.544;2023-07-28T12:51:58;10.07;;;6.40;;
60038;SDS011;45916;52.734;6.544;2023-07-28T12:54:24;8.38;;;5.93;;
60038;SDS011;45916;52.734;6.544;2023-07-28T12:56:50;8.63;;;6.00;;
60038;SDS011;45916;52.734;6.544;2023-07-28T12:59:17;6.90;;;5.78;;
60038;SDS011;45916;52.734;6.544;2023-07-28T13:01:42;7.40;;;5.25;;
60038;SDS011;45916;52.734;6.544;2023-07-28T13:04:08;8.02;;;5.90;;
60038;SDS011;45916;52.734;6.544;2023-07-28T13:06:34;6.70;;;5.63;;
60038;SDS011;45916;52.734;6.544;2023-07-28T13:08:59;7.22;;;6.13;;
60038;SDS011;45916;52.734;6.544;2023-07-28T13:11:25;7.00;;;5.43;;
60038;SDS011;45916;52.734;6.544;2023-07-28T13:13:51;7.15;;;6.00;;
60038;SDS011;45916;52.734;6.544;2023-07-28T13:16:16;7.35;;;5.75;;
60038;SDS011;45916;52.734;6.544;2023-07-28T13:18:42;7.70;;;5.25;;
60038;SDS011;45916;52.734;6.544;2023-07-28T13:21:08;6.85;;;5.20;;
60038;SDS011;45916;52.734;6.544;2023-07-28T13:23:36;6.63;;;5.32;;
60038;SDS011;45916;52.734;6.544;2023-07-28T13:26:02;7.30;;;4.63;;
60038;SDS011;45916;52.734;6.544;2023-07-28T13:28:29;6.63;;;5.32;;
60038;SDS011;45916;52.734;6.544;2023-07-28T13:30:55;6.70;;;5.13;;
60038;SDS011;45916;52.734;6.544;2023-07-28T13:33:21;6.78;;;5.00;;
60038;SDS011;45916;52.734;6.544;2023-07-28T13:35:47;8.00;;;5.78;;
60038;SDS011;45916;52.734;6.544;2023-07-28T13:38:13;7.75;;;5.72;;
60038;SDS011;45916;52.734;6.544;2023-07-28T13:40:39;8.45;;;5.93;;
60038;SDS011;45916;52.734;6.544;2023-07-28T13:43:04;7.50;;;6.28;;
60038;SDS011;45916;52.734;6.544;2023-07-28T13:45:30;8.45;;;5.57;;
60038;SDS011;45916;52.734;6.544;2023-07-28T13:47:56;7.53;;;5.45;;
60038;SDS011;45916;52.734;6.544;2023-07-28T13:50:22;8.25;;;6.75;;
60038;SDS011;45916;52.734;6.544;2023-07-28T13:52:47;8.40;;;6.53;;
60038;SDS011;45916;52.734;6.544;2023-07-28T13:55:13;8.40;;;6.15;;
60038;SDS011;45916;52.734;6.544;2023-07-28T13:57:39;7.28;;;6.50;;
60038;SDS011;45916;52.734;6.544;2023-07-28T14:00:05;7.90;;;6.68;;
60038;SDS011;45916;52.734;6.544;2023-07-28T14:02:36;9.38;;;6.65;;
60038;SDS011;45916;52.734;6.544;2023-07-28T14:05:03;8.30;;;5.82;;
60038;SDS011;45916;52.734;6.544;2023-07-28T14:07:29;7.57;;;5.60;;
60038;SDS011;45916;52.734;6.544;2023-07-28T14:09:55;7.63;;;6.05;;
60038;SDS011;45916;52.734;6.544;2023-07-28T14:12:20;8.40;;;6.50;;
60038;SDS011;45916;52.734;6.544;2023-07-28T14:14:46;7.30;;;6.00;;
60038;SDS011;45916;52.734;6.544;2023-07-28T14:17:12;8.02;;;6.45;;
60038;SDS011;45916;52.734;6.544;2023-07-28T14:19:38;8.05;;;6.15;;
60038;SDS011;45916;52.734;6.544;2023-07-28T14:22:04;7.23;;;6.37;;
60038;SDS011;45916;52.734;6.544;2023-07-28T14:24:30;6.93;;;5.95;;
60038;SDS011;45916;52.734;6.544;2023-07-28T14:26:56;7.28;;;5.32;;
60038;SDS011;45916;52.734;6.544;2023-07-28T14:29:22;6.78;;;6.07;;
60038;SDS011;45916;52.734;6.544;2023-07-28T14:31:48;8.40;;;7.15;;
60038;SDS011;45916;52.734;6.544;2023-07-28T14:34:13;9.15;;;8.20;;
60038;SDS011;45916;52.734;6.544;2023-07-28T14:36:39;9.18;;;7.88;;
60038;SDS011;45916;52.734;6.544;2023-07-28T14:39:05;8.73;;;7.82;;
60038;SDS011;45916;52.734;6.544;2023-07-28T14:41:31;9.35;;;8.45;;
60038;SDS011;45916;52.734;6.544;2023-07-28T14:43:58;9.18;;;7.32;;
60038;SDS011;45916;52.734;6.544;2023-07-28T14:46:24;8.38;;;7.57;;
60038;SDS011;45916;52.734;6.544;2023-07-28T14:48:53;8.40;;;7.43;;
60038;SDS011;45916;52.734;6.544;2023-07-28T14:51:19;9.32;;;7.78;;
60038;SDS011;45916;52.734;6.544;2023-07-28T14:53:45;8.68;;;7.78;;